sensor_id;sensor_type;location;lat;lon;timestamp;pressure;altitude;pressure_sealevel;temperature;humidity
788;BME280;16074;42.708;23.312;2023-03-21T00:01:50;141575.91;;;13.52;57.15
788;BME280;16074;42.708;23.312;2023-03-21T00:04:19;141561.41;;;13.46;58.10
788;BME280;16074;42.708;23.312;2023-03-21T00:06:47;141561.41;;;13.46;58.30
788;BME280;16074;42.708;23.312;2023-03-21T00:09:16;141554.16;;;13.43;58.32
788;BME280;16074;42.708;23.312;2023-03-21T00:11:45;141439.53;;;12.96;58.72
788;BME280;16074;42.708;23.312;2023-03-21T00:14:14;141456.44;;;13.03;58.62
788;BME280;16074;42.708;23.312;2023-03-21T00:16:46;141373.13;;;12.68;59.42
788;BME280;16074;42.708;23.312;2023-03-21T00:19:19;141299.53;;;12.38;60.75
788;BME280;16074;42.708;23.312;2023-03-21T00:21:47;141315.19;;;12.44;60.73
788;BME280;16074;42.708;23.312;2023-03-21T00:24:33;141321.19;;;12.47;60.83
788;BME280;16074;42.708;23.312;2023-03-21T00:27:02;141362.22;;;12.64;62.03
788;BME280;16074;42.708;23.312;2023-03-21T00:29:50;141341.75;;;12.55;62.18
788;BME280;16074;42.708;23.312;2023-03-21T00:32:20;141327.25;;;12.49;62.04
788;BME280;16074;42.708;23.312;2023-03-21T00:34:50;141332.09;;;12.51;61.72
788;BME280;16074;42.708;23.312;2023-03-21T00:37:38;141333.28;;;12.52;62.03
788;BME280;16074;42.708;23.312;2023-03-21T00:40:10;141357.41;;;12.62;62.09
788;BME280;16074;42.708;23.312;2023-03-21T00:42:58;141352.56;;;12.60;62.34
788;BME280;16074;42.708;23.312;2023-03-21T00:45:26;141357.41;;;12.62;62.36
788;BME280;16074;42.708;23.312;2023-03-21T00:47:55;141353.81;;;12.60;62.06
788;BME280;16074;42.708;23.312;2023-03-21T00:50:25;141339.31;;;12.54;62.11
788;BME280;16074;42.708;23.312;2023-03-21T00:52:54;141317.59;;;12.45;62.20
788;BME280;16074;42.708;23.312;2023-03-21T00:55:23;141317.59;;;12.45;61.86
788;BME280;16074;42.708;23.312;2023-03-21T00:57:53;141304.38;;;12.40;62.17
788;BME280;16074;42.708;23.312;2023-03-21T01:00:28;141303.13;;;12.39;62.31
788;BME280;16074;42.708;23.312;2023-03-21T01:02:57;141311.59;;;12.43;63.01
788;BME280;16074;42.708;23.312;2023-03-21T01:05:50;141303.13;;;12.39;63.15
788;BME280;16074;42.708;23.312;2023-03-21T01:08:40;141305.53;;;12.40;63.09
788;BME280;16074;42.708;23.312;2023-03-21T01:11:21;141280.22;;;12.30;62.97
788;BME280;16074;42.708;23.312;2023-03-21T01:13:50;141265.75;;;12.24;64.03
788;BME280;16074;42.708;23.312;2023-03-21T01:16:27;141271.75;;;12.26;63.77
788;BME280;16074;42.708;23.312;2023-03-21T01:18:56;141274.19;;;12.27;64.15
788;BME280;16074;42.708;23.312;2023-03-21T01:21:26;141277.81;;;12.29;64.60
788;BME280;16074;42.708;23.312;2023-03-21T01:23:55;141259.69;;;12.21;65.33
788;BME280;16074;42.708;23.312;2023-03-21T01:26:23;141236.81;;;12.12;64.83
788;BME280;16074;42.708;23.312;2023-03-21T01:28:51;141170.50;;;11.85;65.00
788;BME280;16074;42.708;23.312;2023-03-21T01:31:19;141187.38;;;11.91;64.57
788;BME280;16074;42.708;23.312;2023-03-21T01:33:48;141200.63;;;11.97;65.83
788;BME280;16074;42.708;23.312;2023-03-21T01:36:18;141021.00;;;11.23;67.28
788;BME280;16074;42.708;23.312;2023-03-21T01:38:53;140977.59;;;11.05;69.20
788;BME280;16074;42.708;23.312;2023-03-21T01:41:25;140970.44;;;11.02;69.37
788;BME280;16074;42.708;23.312;2023-03-21T01:44:16;140971.59;;;11.02;69.89
788;BME280;16074;42.708;23.312;2023-03-21T01:46:47;140927.06;;;10.84;69.91
788;BME280;16074;42.708;23.312;2023-03-21T01:49:46;140902.97;;;10.74;70.52
788;BME280;16074;42.708;23.312;2023-03-21T01:52:20;140902.97;;;10.74;70.94
788;BME280;16074;42.708;23.312;2023-03-21T01:55:09;140892.13;;;10.69;71.55
788;BME280;16074;42.708;23.312;2023-03-21T01:58:00;140862.00;;;10.57;71.79
788;BME280;16074;42.708;23.312;2023-03-21T02:01:11;140834.31;;;10.46;72.29
788;BME280;16074;42.708;23.312;2023-03-21T02:03:48;140823.50;;;10.41;72.57
788;BME280;16074;42.708;23.312;2023-03-21T02:06:37;140833.13;;;10.45;72.29
788;BME280;16074;42.708;23.312;2023-03-21T02:09:22;140841.53;;;10.49;72.62
788;BME280;16074;42.708;23.312;2023-03-21T02:11:54;140877.69;;;10.64;71.52
788;BME280;16074;42.708;23.312;2023-03-21T02:14:29;140877.69;;;10.64;71.58
788;BME280;16074;42.708;23.312;2023-03-21T02:17:08;140888.50;;;10.68;71.15
788;BME280;16074;42.708;23.312;2023-03-21T02:20:14;140895.72;;;10.71;71.80
788;BME280;16074;42.708;23.312;2023-03-21T02:23:05;140953.56;;;10.95;71.33
788;BME280;16074;42.708;23.312;2023-03-21T02:25:54;140977.59;;;11.05;72.03
788;BME280;16074;42.708;23.312;2023-03-21T02:28:32;140936.69;;;10.88;70.85
788;BME280;16074;42.708;23.312;2023-03-21T02:31:19;140887.31;;;10.68;71.56
788;BME280;16074;42.708;23.312;2023-03-21T02:34:20;140847.53;;;10.51;72.52
788;BME280;16074;42.708;23.312;2023-03-21T02:36:59;140847.53;;;10.51;73.19
788;BME280;16074;42.708;23.312;2023-03-21T02:39:39;140860.81;;;10.57;73.14
788;BME280;16074;42.708;23.312;2023-03-21T02:42:15;140839.13;;;10.48;73.02
788;BME280;16074;42.708;23.312;2023-03-21T02:44:48;140830.72;;;10.44;73.70
788;BME280;16074;42.708;23.312;2023-03-21T02:47:23;140822.28;;;10.41;74.00
788;BME280;16074;42.708;23.312;2023-03-21T02:49:56;140831.91;;;10.45;73.78
788;BME280;16074;42.708;23.312;2023-03-21T02:52:30;140804.25;;;10.33;74.70
788;BME280;16074;42.708;23.312;2023-03-21T02:55:11;140760.88;;;10.15;75.59
788;BME280;16074;42.708;23.312;2023-03-21T02:57:56;140730.81;;;10.03;76.39
788;BME280;16074;42.708;23.312;2023-03-21T03:00:39;140733.22;;;10.04;76.80
788;BME280;16074;42.708;23.312;2023-03-21T03:03:10;140724.78;;;10.00;77.35
788;BME280;16074;42.708;23.312;2023-03-21T03:05:59;140723.59;;;10.00;77.61
788;BME280;16074;42.708;23.312;2023-03-21T03:08:38;140712.69;;;9.95;77.58
788;BME280;16074;42.708;23.312;2023-03-21T03:11:28;140697.06;;;9.89;78.07
788;BME280;16074;42.708;23.312;2023-03-21T03:14:11;140694.66;;;9.88;78.02
788;BME280;16074;42.708;23.312;2023-03-21T03:17:15;140722.31;;;9.99;77.22
788;BME280;16074;42.708;23.312;2023-03-21T03:19:57;140695.88;;;9.88;77.47
788;BME280;16074;42.708;23.312;2023-03-21T03:22:51;140694.66;;;9.88;77.92
788;BME280;16074;42.708;23.312;2023-03-21T03:25:27;140756.06;;;10.13;77.12
788;BME280;16074;42.708;23.312;2023-03-21T03:28:14;140792.19;;;10.28;77.58
788;BME280;16074;42.708;23.312;2023-03-21T03:30:46;140819.88;;;10.40;76.27
788;BME280;16074;42.708;23.312;2023-03-21T03:33:40;140839.13;;;10.48;74.98
788;BME280;16074;42.708;23.312;2023-03-21T03:36:13;140848.78;;;10.52;75.01
788;BME280;16074;42.708;23.312;2023-03-21T03:39:09;140845.13;;;10.50;74.83
788;BME280;16074;42.708;23.312;2023-03-21T03:41:46;140790.97;;;10.28;75.17
788;BME280;16074;42.708;23.312;2023-03-21T03:44:39;140741.63;;;10.07;75.84
788;BME280;16074;42.708;23.312;2023-03-21T03:47:09;140793.38;;;10.29;75.24
788;BME280;16074;42.708;23.312;2023-03-21T03:50:00;140789.78;;;10.27;75.48
788;BME280;16074;42.708;23.312;2023-03-21T03:52:35;140746.44;;;10.09;75.95
788;BME280;16074;42.708;23.312;2023-03-21T03:55:22;140639.28;;;9.65;77.59
788;BME280;16074;42.708;23.312;2023-03-21T03:58:00;140589.97;;;9.44;80.10
788;BME280;16074;42.708;23.312;2023-03-21T04:00:32;140581.56;;;9.41;81.07
788;BME280;16074;42.708;23.312;2023-03-21T04:03:01;140526.25;;;9.18;82.16
788;BME280;16074;42.708;23.312;2023-03-21T04:05:29;140499.78;;;9.07;82.94
788;BME280;16074;42.708;23.312;2023-03-21T04:07:58;140479.34;;;8.99;83.56
788;BME280;16074;42.708;23.312;2023-03-21T04:10:34;140473.34;;;8.96;83.31
788;BME280;16074;42.708;23.312;2023-03-21T04:13:04;140510.63;;;9.12;82.69
788;BME280;16074;42.708;23.312;2023-03-21T04:15:42;140539.50;;;9.24;81.98
788;BME280;16074;42.708;23.312;2023-03-21T04:18:14;140534.69;;;9.22;82.96
788;BME280;16074;42.708;23.312;2023-03-21T04:20:43;140551.53;;;9.29;82.63
788;BME280;16074;42.708;23.312;2023-03-21T04:23:14;140569.53;;;9.36;81.60
788;BME280;16074;42.708;23.312;2023-03-21T04:25:45;140569.53;;;9.36;81.34
788;BME280;16074;42.708;23.312;2023-03-21T04:28:26;140616.44;;;9.55;80.70
788;BME280;16074;42.708;23.312;2023-03-21T04:31:07;140660.94;;;9.74;78.89
788;BME280;16074;42.708;23.312;2023-03-21T04:33:54;140653.72;;;9.71;79.80
788;BME280;16074;42.708;23.312;2023-03-21T04:36:23;140627.31;;;9.60;78.76
788;BME280;16074;42.708;23.312;2023-03-21T04:39:00;140606.81;;;9.51;79.40
788;BME280;16074;42.708;23.312;2023-03-21T04:41:31;140612.84;;;9.54;79.49
788;BME280;16074;42.708;23.312;2023-03-21T04:44:01;140596.00;;;9.47;80.00
788;BME280;16074;42.708;23.312;2023-03-21T04:46:29;140598.41;;;9.48;79.46
788;BME280;16074;42.708;23.312;2023-03-21T04:48:57;140610.44;;;9.53;80.91
788;BME280;16074;42.708;23.312;2023-03-21T04:51:26;140632.13;;;9.62;80.54
788;BME280;16074;42.708;23.312;2023-03-21T04:53:54;140676.63;;;9.80;81.01
788;BME280;16074;42.708;23.312;2023-03-21T04:56:23;140675.41;;;9.80;80.10
788;BME280;16074;42.708;23.312;2023-03-21T04:58:59;140671.81;;;9.78;79.32
788;BME280;16074;42.708;23.312;2023-03-21T05:01:29;140663.34;;;9.75;78.50
788;BME280;16074;42.708;23.312;2023-03-21T05:03:57;140664.59;;;9.75;79.32
788;BME280;16074;42.708;23.312;2023-03-21T05:06:26;140641.69;;;9.66;79.44
788;BME280;16074;42.708;23.312;2023-03-21T05:08:56;140659.78;;;9.73;80.16
788;BME280;16074;42.708;23.312;2023-03-21T05:11:26;140650.13;;;9.69;79.09
788;BME280;16074;42.708;23.312;2023-03-21T05:13:57;140624.91;;;9.59;79.18
788;BME280;16074;42.708;23.312;2023-03-21T05:16:26;140632.13;;;9.62;79.65
788;BME280;16074;42.708;23.312;2023-03-21T05:19:00;140628.47;;;9.60;79.80
788;BME280;16074;42.708;23.312;2023-03-21T05:21:33;140660.94;;;9.74;79.32
788;BME280;16074;42.708;23.312;2023-03-21T05:24:13;140606.81;;;9.51;79.77
788;BME280;16074;42.708;23.312;2023-03-21T05:26:43;140600.81;;;9.49;79.99
788;BME280;16074;42.708;23.312;2023-03-21T05:29:18;140605.66;;;9.51;79.66
788;BME280;16074;42.708;23.312;2023-03-21T05:31:56;140596.00;;;9.47;79.64
788;BME280;16074;42.708;23.312;2023-03-21T05:34:26;140614.03;;;9.54;79.00
788;BME280;16074;42.708;23.312;2023-03-21T05:36:55;140617.66;;;9.56;78.05
788;BME280;16074;42.708;23.312;2023-03-21T05:39:26;140629.72;;;9.61;77.99
788;BME280;16074;42.708;23.312;2023-03-21T05:42:06;140644.09;;;9.67;77.92
788;BME280;16074;42.708;23.312;2023-03-21T05:44:34;140636.88;;;9.64;76.62
788;BME280;16074;42.708;23.312;2023-03-21T05:47:05;140652.56;;;9.70;76.16
788;BME280;16074;42.708;23.312;2023-03-21T05:49:42;140656.13;;;9.72;76.22
788;BME280;16074;42.708;23.312;2023-03-21T05:52:10;140691.06;;;9.86;76.17
788;BME280;16074;42.708;23.312;2023-03-21T05:54:39;140703.09;;;9.91;75.06
788;BME280;16074;42.708;23.312;2023-03-21T05:57:08;140735.63;;;10.05;74.83
788;BME280;16074;42.708;23.312;2023-03-21T05:59:55;140764.53;;;10.17;74.29
788;BME280;16074;42.708;23.312;2023-03-21T06:02:23;140794.59;;;10.29;73.80
788;BME280;16074;42.708;23.312;2023-03-21T06:04:57;140807.81;;;10.35;73.14
788;BME280;16074;42.708;23.312;2023-03-21T06:07:25;140848.78;;;10.52;72.34
788;BME280;16074;42.708;23.312;2023-03-21T06:09:54;140878.88;;;10.64;71.81
788;BME280;16074;42.708;23.312;2023-03-21T06:12:23;140917.41;;;10.80;71.11
788;BME280;16074;42.708;23.312;2023-03-21T06:15:20;140951.16;;;10.94;70.51
788;BME280;16074;42.708;23.312;2023-03-21T06:18:09;140984.84;;;11.08;69.36
788;BME280;16074;42.708;23.312;2023-03-21T06:20:40;141031.88;;;11.27;69.27
788;BME280;16074;42.708;23.312;2023-03-21T06:23:11;141096.97;;;11.54;68.62
788;BME280;16074;42.708;23.312;2023-03-21T06:25:39;141152.44;;;11.77;67.81
788;BME280;16074;42.708;23.312;2023-03-21T06:28:07;141201.84;;;11.97;67.10
788;BME280;16074;42.708;23.312;2023-03-21T06:30:39;141254.88;;;12.19;65.93
788;BME280;16074;42.708;23.312;2023-03-21T06:33:20;141309.19;;;12.42;65.02
788;BME280;16074;42.708;23.312;2023-03-21T06:35:54;141353.81;;;12.60;64.15
788;BME280;16074;42.708;23.312;2023-03-21T06:38:23;141393.63;;;12.77;62.92
788;BME280;16074;42.708;23.312;2023-03-21T06:40:52;141420.16;;;12.88;62.15
788;BME280;16074;42.708;23.312;2023-03-21T06:43:23;141440.72;;;12.96;60.84
788;BME280;16074;42.708;23.312;2023-03-21T06:45:51;141504.69;;;13.22;60.60
788;BME280;16074;42.708;23.312;2023-03-21T06:48:20;141509.50;;;13.24;59.84
788;BME280;16074;42.708;23.312;2023-03-21T06:50:50;141543.31;;;13.38;59.87
788;BME280;16074;42.708;23.312;2023-03-21T06:53:23;141592.81;;;13.59;59.41
788;BME280;16074;42.708;23.312;2023-03-21T06:56:14;141602.47;;;13.63;59.33
788;BME280;16074;42.708;23.312;2023-03-21T06:58:44;141627.81;;;13.73;58.87
788;BME280;16074;42.708;23.312;2023-03-21T07:01:28;141656.81;;;13.85;58.57
788;BME280;16074;42.708;23.312;2023-03-21T07:04:03;141639.91;;;13.78;58.24
788;BME280;16074;42.708;23.312;2023-03-21T07:06:33;141693.06;;;14.00;57.31
788;BME280;16074;42.708;23.312;2023-03-21T07:09:04;141701.50;;;14.04;57.47
788;BME280;16074;42.708;23.312;2023-03-21T07:11:34;141736.56;;;14.18;57.38
788;BME280;16074;42.708;23.312;2023-03-21T07:14:04;141770.41;;;14.32;56.00
788;BME280;16074;42.708;23.312;2023-03-21T07:16:32;141794.59;;;14.42;55.29
788;BME280;16074;42.708;23.312;2023-03-21T07:19:00;141799.41;;;14.44;54.69
788;BME280;16074;42.708;23.312;2023-03-21T07:21:29;141851.38;;;14.65;54.68
788;BME280;16074;42.708;23.312;2023-03-21T07:23:58;141874.34;;;14.75;53.49
788;BME280;16074;42.708;23.312;2023-03-21T07:26:28;141891.25;;;14.82;53.39
788;BME280;16074;42.708;23.312;2023-03-21T07:28:57;141914.25;;;14.91;52.91
788;BME280;16074;42.708;23.312;2023-03-21T07:31:26;141926.34;;;14.96;52.56
788;BME280;16074;42.708;23.312;2023-03-21T07:33:55;141945.66;;;15.04;52.34
788;BME280;16074;42.708;23.312;2023-03-21T07:36:23;141940.81;;;15.02;52.18
788;BME280;16074;42.708;23.312;2023-03-21T07:38:52;141966.25;;;15.13;52.15
788;BME280;16074;42.708;23.312;2023-03-21T07:41:22;141981.94;;;15.19;51.56
788;BME280;16074;42.708;23.312;2023-03-21T07:43:52;141998.88;;;15.26;51.18
788;BME280;16074;42.708;23.312;2023-03-21T07:46:20;141980.75;;;15.19;51.17
788;BME280;16074;42.708;23.312;2023-03-21T07:48:49;142013.44;;;15.32;51.16
788;BME280;16074;42.708;23.312;2023-03-21T07:51:17;142025.53;;;15.37;51.62
788;BME280;16074;42.708;23.312;2023-03-21T07:53:45;142031.56;;;15.40;51.12
788;BME280;16074;42.708;23.312;2023-03-21T07:56:14;142017.06;;;15.34;51.54
788;BME280;16074;42.708;23.312;2023-03-21T07:58:42;142041.25;;;15.44;51.78
788;BME280;16074;42.708;23.312;2023-03-21T08:01:12;142099.34;;;15.67;51.04
788;BME280;16074;42.708;23.312;2023-03-21T08:03:40;142125.97;;;15.78;50.72
788;BME280;16074;42.708;23.312;2023-03-21T08:06:09;142164.63;;;15.94;49.84
788;BME280;16074;42.708;23.312;2023-03-21T08:08:38;142227.59;;;16.20;49.16
788;BME280;16074;42.708;23.312;2023-03-21T08:11:06;142245.72;;;16.28;49.15
788;BME280;16074;42.708;23.312;2023-03-21T08:13:35;142276.06;;;16.40;49.15
788;BME280;16074;42.708;23.312;2023-03-21T08:16:03;142295.41;;;16.48;48.49
788;BME280;16074;42.708;23.312;2023-03-21T08:18:33;142296.63;;;16.49;48.30
788;BME280;16074;42.708;23.312;2023-03-21T08:21:02;142307.50;;;16.53;47.81
788;BME280;16074;42.708;23.312;2023-03-21T08:23:30;142331.75;;;16.63;47.87
788;BME280;16074;42.708;23.312;2023-03-21T08:25:58;142288.13;;;16.45;46.85
788;BME280;16074;42.708;23.312;2023-03-21T08:28:27;142283.28;;;16.43;47.17
788;BME280;16074;42.708;23.312;2023-03-21T08:30:56;142320.84;;;16.59;46.93
788;BME280;16074;42.708;23.312;2023-03-21T08:33:24;142341.44;;;16.67;46.85
788;BME280;16074;42.708;23.312;2023-03-21T08:35:58;142364.41;;;16.76;46.24
788;BME280;16074;42.708;23.312;2023-03-21T08:38:26;142375.34;;;16.81;46.64
788;BME280;16074;42.708;23.312;2023-03-21T08:40:55;142394.72;;;16.89;46.45
788;BME280;16074;42.708;23.312;2023-03-21T08:43:26;142392.31;;;16.88;46.43
788;BME280;16074;42.708;23.312;2023-03-21T08:45:54;142427.41;;;17.02;46.92
788;BME280;16074;42.708;23.312;2023-03-21T08:48:22;142425.00;;;17.01;46.53
788;BME280;16074;42.708;23.312;2023-03-21T08:50:51;142406.84;;;16.94;45.74
788;BME280;16074;42.708;23.312;2023-03-21T08:53:20;142411.69;;;16.96;46.22
788;BME280;16074;42.708;23.312;2023-03-21T08:55:49;142404.41;;;16.93;46.64
788;BME280;16074;42.708;23.312;2023-03-21T08:58:17;142434.69;;;17.05;46.50
788;BME280;16074;42.708;23.312;2023-03-21T09:00:45;142389.88;;;16.87;46.85
788;BME280;16074;42.708;23.312;2023-03-21T09:03:14;142437.13;;;17.06;45.77
788;BME280;16074;42.708;23.312;2023-03-21T09:05:42;142456.50;;;17.14;45.99
788;BME280;16074;42.708;23.312;2023-03-21T09:08:11;142479.50;;;17.24;46.14
788;BME280;16074;42.708;23.312;2023-03-21T09:10:41;142521.94;;;17.41;45.32
788;BME280;16074;42.708;23.312;2023-03-21T09:13:09;142515.91;;;17.39;45.67
788;BME280;16074;42.708;23.312;2023-03-21T09:15:37;142536.47;;;17.47;45.78
788;BME280;16074;42.708;23.312;2023-03-21T09:18:06;142540.16;;;17.49;45.10
788;BME280;16074;42.708;23.312;2023-03-21T09:20:41;142559.50;;;17.57;45.36
788;BME280;16074;42.708;23.312;2023-03-21T09:23:10;142574.03;;;17.63;45.31
788;BME280;16074;42.708;23.312;2023-03-21T09:25:40;142560.72;;;17.57;45.36
788;BME280;16074;42.708;23.312;2023-03-21T09:28:09;142601.94;;;17.74;45.71
788;BME280;16074;42.708;23.312;2023-03-21T09:30:39;142597.09;;;17.72;45.26
788;BME280;16074;42.708;23.312;2023-03-21T09:33:08;142623.78;;;17.83;45.23
788;BME280;16074;42.708;23.312;2023-03-21T09:35:45;142658.91;;;17.98;44.79
788;BME280;16074;42.708;23.312;2023-03-21T09:38:15;142698.91;;;18.14;44.81
788;BME280;16074;42.708;23.312;2023-03-21T09:40:56;142734.09;;;18.28;43.97
788;BME280;16074;42.708;23.312;2023-03-21T09:43:36;142667.38;;;18.01;44.33
788;BME280;16074;42.708;23.312;2023-03-21T09:46:09;142617.69;;;17.81;44.54
788;BME280;16074;42.708;23.312;2023-03-21T09:48:45;142649.22;;;17.94;44.47
788;BME280;16074;42.708;23.312;2023-03-21T09:51:25;142595.88;;;17.72;45.06
788;BME280;16074;42.708;23.312;2023-03-21T09:53:56;142641.94;;;17.91;45.26
788;BME280;16074;42.708;23.312;2023-03-21T09:56:28;142671.03;;;18.02;44.51
788;BME280;16074;42.708;23.312;2023-03-21T09:58:58;142578.88;;;17.65;45.11
788;BME280;16074;42.708;23.312;2023-03-21T10:01:28;142492.81;;;17.29;45.78
788;BME280;16074;42.708;23.312;2023-03-21T10:04:00;142560.72;;;17.57;45.43
788;BME280;16074;42.708;23.312;2023-03-21T10:06:31;142599.53;;;17.73;44.40
788;BME280;16074;42.708;23.312;2023-03-21T10:09:05;142632.22;;;17.87;44.01
788;BME280;16074;42.708;23.312;2023-03-21T10:11:41;142644.38;;;17.92;44.18
788;BME280;16074;42.708;23.312;2023-03-21T10:14:16;142663.75;;;17.99;43.76
788;BME280;16074;42.708;23.312;2023-03-21T10:16:48;142718.31;;;18.22;43.87
788;BME280;16074;42.708;23.312;2023-03-21T10:19:18;142787.47;;;18.50;42.88
788;BME280;16074;42.708;23.312;2023-03-21T10:21:50;142877.22;;;18.87;42.15
788;BME280;16074;42.708;23.312;2023-03-21T10:24:30;142974.34;;;19.27;41.17
788;BME280;16074;42.708;23.312;2023-03-21T10:27:02;143065.38;;;19.64;40.49
788;BME280;16074;42.708;23.312;2023-03-21T10:29:34;143168.66;;;20.07;39.70
788;BME280;16074;42.708;23.312;2023-03-21T10:32:08;143265.81;;;20.46;38.78
788;BME280;16074;42.708;23.312;2023-03-21T10:34:40;143381.28;;;20.94;37.90
788;BME280;16074;42.708;23.312;2023-03-21T10:37:10;143483.38;;;21.36;35.72
788;BME280;16074;42.708;23.312;2023-03-21T10:39:40;143549.13;;;21.63;35.17
788;BME280;16074;42.708;23.312;2023-03-21T10:42:17;143630.59;;;21.96;34.47
788;BME280;16074;42.708;23.312;2023-03-21T10:44:48;143682.91;;;22.17;34.21
788;BME280;16074;42.708;23.312;2023-03-21T10:47:22;143665.88;;;22.10;34.08
788;BME280;16074;42.708;23.312;2023-03-21T10:49:52;143648.84;;;22.03;34.61
788;BME280;16074;42.708;23.312;2023-03-21T10:52:43;143758.38;;;22.48;33.52
788;BME280;16074;42.708;23.312;2023-03-21T10:55:21;143791.28;;;22.62;33.39
788;BME280;16074;42.708;23.312;2023-03-21T10:57:57;143837.50;;;22.81;33.46
788;BME280;16074;42.708;23.312;2023-03-21T11:00:28;143910.59;;;23.10;32.75
788;BME280;16074;42.708;23.312;2023-03-21T11:02:57;143889.81;;;23.02;32.54
788;BME280;16074;42.708;23.312;2023-03-21T11:05:33;143920.34;;;23.14;31.39
788;BME280;16074;42.708;23.312;2023-03-21T11:08:04;143849.66;;;22.86;32.19
788;BME280;16074;42.708;23.312;2023-03-21T11:10:49;143848.47;;;22.85;32.23
788;BME280;16074;42.708;23.312;2023-03-21T11:13:24;143803.41;;;22.67;32.45
788;BME280;16074;42.708;23.312;2023-03-21T11:15:56;143855.78;;;22.88;32.36
788;BME280;16074;42.708;23.312;2023-03-21T11:18:27;143876.47;;;22.96;32.32
788;BME280;16074;42.708;23.312;2023-03-21T11:21:03;143905.72;;;23.08;32.18
788;BME280;16074;42.708;23.312;2023-03-21T11:23:34;143939.84;;;23.22;31.68
788;BME280;16074;42.708;23.312;2023-03-21T11:26:09;143913.03;;;23.11;31.60
788;BME280;16074;42.708;23.312;2023-03-21T11:28:40;143953.22;;;23.28;31.42
788;BME280;16074;42.708;23.312;2023-03-21T11:31:10;143939.84;;;23.22;31.72
788;BME280;16074;42.708;23.312;2023-03-21T11:33:43;143921.53;;;23.15;31.84
788;BME280;16074;42.708;23.312;2023-03-21T11:36:30;143842.38;;;22.83;32.38
788;BME280;16074;42.708;23.312;2023-03-21T11:39:12;143886.19;;;23.00;32.28
788;BME280;16074;42.708;23.312;2023-03-21T11:41:42;143922.78;;;23.15;32.22
788;BME280;16074;42.708;23.312;2023-03-21T11:44:31;143905.72;;;23.08;32.18
788;BME280;16074;42.708;23.312;2023-03-21T11:47:00;143872.78;;;22.95;32.43
788;BME280;16074;42.708;23.312;2023-03-21T11:49:29;143887.41;;;23.01;32.43
788;BME280;16074;42.708;23.312;2023-03-21T11:52:04;143871.59;;;22.94;32.54
788;BME280;16074;42.708;23.312;2023-03-21T11:54:43;143866.72;;;22.92;32.72
788;BME280;16074;42.708;23.312;2023-03-21T11:57:24;143832.63;;;22.79;32.78
788;BME280;16074;42.708;23.312;2023-03-21T12:00:03;143841.16;;;22.82;32.71
788;BME280;16074;42.708;23.312;2023-03-21T12:02:59;143837.50;;;22.81;32.30
788;BME280;16074;42.708;23.312;2023-03-21T12:05:33;143815.56;;;22.72;32.73
788;BME280;16074;42.708;23.312;2023-03-21T12:08:08;143810.72;;;22.70;32.77
788;BME280;16074;42.708;23.312;2023-03-21T12:10:50;143813.13;;;22.71;32.57
788;BME280;16074;42.708;23.312;2023-03-21T12:13:31;143850.91;;;22.86;32.87
788;BME280;16074;42.708;23.312;2023-03-21T12:16:21;143797.34;;;22.64;32.95
788;BME280;16074;42.708;23.312;2023-03-21T12:22:03;143771.78;;;22.54;31.52
788;BME280;16074;42.708;23.312;2023-03-21T12:24:40;143769.34;;;22.53;32.08
788;BME280;16074;42.708;23.312;2023-03-21T12:27:18;143766.91;;;22.52;31.99
788;BME280;16074;42.708;23.312;2023-03-21T12:30:10;143735.28;;;22.39;32.03
788;BME280;16074;42.708;23.312;2023-03-21T12:32:50;143658.56;;;22.07;31.85
788;BME280;16074;42.708;23.312;2023-03-21T12:35:31;143609.91;;;21.87;32.43
788;BME280;16074;42.708;23.312;2023-03-21T12:38:13;143597.72;;;21.82;32.83
788;BME280;16074;42.708;23.312;2023-03-21T12:43:41;143618.44;;;21.91;33.09
788;BME280;16074;42.708;23.312;2023-03-21T12:46:15;143585.63;;;21.77;32.13
788;BME280;16074;42.708;23.312;2023-03-21T12:48:49;143605.03;;;21.85;31.83
788;BME280;16074;42.708;23.312;2023-03-21T12:51:21;143620.88;;;21.92;32.17
788;BME280;16074;42.708;23.312;2023-03-21T12:53:56;143641.53;;;22.00;32.49
788;BME280;16074;42.708;23.312;2023-03-21T12:56:29;143601.41;;;21.84;32.37
788;BME280;16074;42.708;23.312;2023-03-21T12:59:05;143592.91;;;21.80;33.00
788;BME280;16074;42.708;23.312;2023-03-21T13:01:37;143556.41;;;21.66;32.94
788;BME280;16074;42.708;23.312;2023-03-21T13:04:32;143535.66;;;21.57;33.11
788;BME280;16074;42.708;23.312;2023-03-21T13:07:04;143533.22;;;21.56;33.14
788;BME280;16074;42.708;23.312;2023-03-21T13:09:36;143501.66;;;21.43;33.12
788;BME280;16074;42.708;23.312;2023-03-21T13:12:19;143474.91;;;21.32;33.38
788;BME280;16074;42.708;23.312;2023-03-21T13:14:58;143479.75;;;21.34;33.48
788;BME280;16074;42.708;23.312;2023-03-21T13:17:40;143468.78;;;21.30;33.47
788;BME280;16074;42.708;23.312;2023-03-21T13:20:20;143448.16;;;21.21;33.63
788;BME280;16074;42.708;23.312;2023-03-21T13:22:49;143401.94;;;21.02;33.94
788;BME280;16074;42.708;23.312;2023-03-21T13:25:19;143387.34;;;20.96;34.38
788;BME280;16074;42.708;23.312;2023-03-21T13:27:53;143386.16;;;20.96;34.26
788;BME280;16074;42.708;23.312;2023-03-21T13:30:24;143395.88;;;21.00;34.77
788;BME280;16074;42.708;23.312;2023-03-21T13:33:02;143388.59;;;20.97;34.80
788;BME280;16074;42.708;23.312;2023-03-21T13:35:37;143388.59;;;20.97;35.20
788;BME280;16074;42.708;23.312;2023-03-21T13:38:11;143339.91;;;20.77;35.43
788;BME280;16074;42.708;23.312;2023-03-21T13:40:44;143344.78;;;20.79;35.64
788;BME280;16074;42.708;23.312;2023-03-21T13:43:34;143336.28;;;20.75;36.15
788;BME280;16074;42.708;23.312;2023-03-21T13:46:07;143290.09;;;20.56;36.06
788;BME280;16074;42.708;23.312;2023-03-21T13:48:58;143305.94;;;20.63;35.97